Time;durP1;ratioP1;P1;durP2;ratioP2;P2;SDS_P1;SDS_P2;PMS_P1;PMS_P2;Temp;Humidity;BMP_temperature;BMP_pressure;BME280_temperature;BME280_humidity;BME280_pressure;Samples;Min_cycle;Max_cycle;Signal;HPM_P1;HPM_P2
2022/03/20 00:01:41;;;;;;;;;;;8.50;99.90;;;;;;5013187;28;19909;-76
2022/03/20 00:04:07;;;;;;;;;;;10.00;99.90;;;;;;5012885;28;19925;-76
2022/03/20 00:06:33;;;;;;;;;;;9.60;99.90;;;;;;5011800;28;19912;-76
2022/03/20 00:08:58;;;;;;;;;;;10.00;99.90;;;;;;5012959;28;19993;-76
2022/03/20 00:11:27;;;;;;;;;;;10.00;99.90;;;;;;5012665;28;19921;-77
2022/03/20 00:13:53;;;;;;;;;;;9.50;99.90;;;;;;5012916;28;19917;-76
2022/03/20 00:16:18;;;;;;;;;;;9.90;99.90;;;;;;5016790;28;20269;-77
2022/03/20 00:18:44;;;;;;;;;;;;;;;;;;5016721;28;20396;-77
2022/03/20 00:21:11;;;;;;;;;;;9.90;99.90;;;;;;5016696;28;20442;-75
2022/03/20 00:23:37;;;;;;;;;;;10.00;99.90;;;;;;5016599;28;19910;-77
2022/03/20 00:26:02;;;;;;;;;;;9.90;99.90;;;;;;5016580;28;19913;-77
2022/03/20 00:28:28;;;;;;;;;;;;;;;;;;5016406;28;19916;-76
2022/03/20 00:30:55;;;;;;;;;;;9.60;99.90;;;;;;5016446;28;19918;-76
2022/03/20 00:33:21;;;;;;;;;;;9.70;99.90;;;;;;5015202;28;20320;-76
2022/03/20 00:35:47;;;;;;;;;;;;;;;;;;5015976;28;19909;-76
2022/03/20 00:38:13;;;;;;;;;;;;;;;;;;5016317;28;19920;-76
2022/03/20 00:40:38;;;;;;;;;;;10.10;99.90;;;;;;5016182;28;19944;-76
2022/03/20 00:43:05;;;;;;;;;;;9.30;99.90;;;;;;5015496;28;19925;-76
2022/03/20 00:45:30;;;;;;;;;;;9.90;99.90;;;;;;5016031;28;19909;-76
2022/03/20 00:47:56;;;;;;;;;;;9.50;99.90;;;;;;5015756;28;19913;-76
2022/03/20 00:50:22;;;;;;;;;;;9.70;99.90;;;;;;5016100;28;20012;-76
2022/03/20 00:52:47;;;;;;;;;;;10.10;99.90;;;;;;5016538;28;20363;-76
2022/03/20 00:55:13;;;;;;;;;;;9.90;99.90;;;;;;5015932;28;20393;-76
2022/03/20 00:57:38;;;;;;;;;;;10.00;99.90;;;;;;5015509;28;20392;-76
2022/03/20 01:00:05;;;;;;;;;;;9.90;99.90;;;;;;5015992;28;19909;-76
2022/03/20 01:02:36;;;;;;;;;;;10.10;99.90;;;;;;5015997;28;19910;-76
2022/03/20 01:05:01;;;;;;;;;;;10.10;99.90;;;;;;5015822;28;19910;-77
2022/03/20 01:07:27;;;;;;;;;;;10.00;99.90;;;;;;5015787;28;20293;-76
2022/03/20 01:09:52;;;;;;;;;;;10.10;99.90;;;;;;5015715;28;20385;-77
2022/03/20 01:12:18;;;;;;;;;;;9.90;99.90;;;;;;5015193;28;19920;-77
2022/03/20 01:14:43;;;;;;;;;;;10.10;99.90;;;;;;5015878;28;19964;-76
2022/03/20 01:17:09;;;;;;;;;;;10.10;99.90;;;;;;5015737;28;19916;-76
2022/03/20 01:19:34;;;;;;;;;;;9.70;99.90;;;;;;5015698;28;19910;-77
2022/03/20 01:22:00;;;;;;;;;;;10.10;99.90;;;;;;5015846;28;19920;-76
2022/03/20 01:24:27;;;;;;;;;;;10.20;99.90;;;;;;5014922;28;20412;-76
2022/03/20 01:26:53;;;;;;;;;;;9.50;99.90;;;;;;5014875;28;19921;-76
2022/03/20 01:29:18;;;;;;;;;;;10.20;99.90;;;;;;5015283;28;19978;-76
2022/03/20 01:31:44;;;;;;;;;;;;;;;;;;5015315;28;20000;-76
2022/03/20 01:34:10;;;;;;;;;;;;;;;;;;5015166;28;19921;-76
2022/03/20 01:36:37;;;;;;;;;;;9.60;99.90;;;;;;5015233;28;19966;-76
2022/03/20 01:39:03;;;;;;;;;;;;;;;;;;5015589;28;19917;-77
2022/03/20 01:41:28;;;;;;;;;;;10.10;99.90;;;;;;5014981;28;19910;-76
2022/03/20 01:43:59;;;;;;;;;;;9.60;99.90;;;;;;5014684;28;20305;-76
2022/03/20 01:46:25;;;;;;;;;;;9.80;99.90;;;;;;5014833;28;19909;-76
2022/03/20 01:48:50;;;;;;;;;;;9.70;99.90;;;;;;5014743;28;19920;-76
2022/03/20 01:51:16;;;;;;;;;;;9.90;99.90;;;;;;5014606;28;19922;-77
2022/03/20 01:53:43;;;;;;;;;;;10.40;99.90;;;;;;5014444;28;19913;-76
2022/03/20 01:56:08;;;;;;;;;;;9.80;99.90;;;;;;5014617;28;19910;-76
2022/03/20 01:58:34;;;;;;;;;;;10.00;99.90;;;;;;5014778;28;19956;-77
2022/03/20 02:01:00;;;;;;;;;;;10.10;99.90;;;;;;5014818;28;19914;-77
2022/03/20 02:03:26;;;;;;;;;;;10.20;99.90;;;;;;5014600;28;19910;-76
2022/03/20 02:05:52;;;;;;;;;;;9.60;99.90;;;;;;5014260;28;19968;-76
2022/03/20 02:08:25;;;;;;;;;;;10.20;99.90;;;;;;5014685;28;19972;-76
2022/03/20 02:10:51;;;;;;;;;;;10.30;99.90;;;;;;5014501;28;19913;-77
2022/03/20 02:13:19;;;;;;;;;;;9.70;99.90;;;;;;5014560;28;19909;-77
2022/03/20 02:15:46;;;;;;;;;;;10.10;99.90;;;;;;5014433;28;19909;-76
2022/03/20 02:18:11;;;;;;;;;;;9.90;99.90;;;;;;5014601;28;19960;-76
2022/03/20 02:20:37;;;;;;;;;;;10.20;99.90;;;;;;5014007;28;19961;-76
2022/03/20 02:23:02;;;;;;;;;;;9.80;99.90;;;;;;5014234;28;19910;-76
2022/03/20 02:25:29;;;;;;;;;;;10.00;99.90;;;;;;5013687;28;19936;-76
2022/03/20 02:27:54;;;;;;;;;;;10.20;99.90;;;;;;5014456;28;20357;-76
2022/03/20 02:30:23;;;;;;;;;;;10.20;99.90;;;;;;5013196;28;21641;-76
2022/03/20 02:32:49;;;;;;;;;;;;;;;;;;5014379;28;19914;-77
2022/03/20 02:35:16;;;;;;;;;;;10.00;99.90;;;;;;5014413;28;19910;-77
2022/03/20 02:37:43;;;;;;;;;;;10.30;99.90;;;;;;5013132;28;20365;-76
2022/03/20 02:40:09;;;;;;;;;;;10.20;99.90;;;;;;5013750;28;19914;-76
2022/03/20 02:42:37;;;;;;;;;;;10.20;99.90;;;;;;5013619;28;19916;-76
2022/03/20 02:45:05;;;;;;;;;;;10.30;99.90;;;;;;5013883;28;19918;-76
2022/03/20 02:47:31;;;;;;;;;;;;;;;;;;5013669;28;19917;-76
2022/03/20 02:49:58;;;;;;;;;;;10.20;99.90;;;;;;5013889;28;19922;-76
2022/03/20 02:52:25;;;;;;;;;;;10.10;99.90;;;;;;5013695;28;20293;-75
2022/03/20 02:54:51;;;;;;;;;;;10.30;99.90;;;;;;5013686;28;19909;-76
2022/03/20 02:57:16;;;;;;;;;;;10.30;99.90;;;;;;5013807;28;19910;-76
2022/03/20 02:59:42;;;;;;;;;;;9.80;99.90;;;;;;5013717;28;19955;-76
2022/03/20 03:02:09;;;;;;;;;;;10.10;99.90;;;;;;5013554;28;19992;-76
2022/03/20 03:04:37;;;;;;;;;;;11.30;99.90;;;;;;5013837;28;19921;-76
2022/03/20 03:07:03;;;;;;;;;;;;;;;;;;5013699;28;20296;-76
2022/03/20 03:12:13;;;;;;;;;;;9.80;99.90;;;;;;4994064;28;19920;-76
2022/03/20 03:17:34;;;;;;;;;;;10.00;99.90;;;;;;4999811;28;19916;-76
2022/03/20 03:19:59;;;;;;;;;;;10.10;99.90;;;;;;5013468;28;19913;-76
2022/03/20 03:22:26;;;;;;;;;;;10.20;99.90;;;;;;5013305;28;20351;-76
2022/03/20 03:24:52;;;;;;;;;;;10.20;99.90;;;;;;5013281;28;20316;-76
2022/03/20 03:27:17;;;;;;;;;;;10.00;99.90;;;;;;5013905;28;19914;-76
2022/03/20 03:29:43;;;;;;;;;;;10.00;99.90;;;;;;5013227;28;20360;-76
2022/03/20 03:32:08;;;;;;;;;;;9.90;99.90;;;;;;5013015;28;20411;-76
2022/03/20 03:37:20;;;;;;;;;;;10.20;99.90;;;;;;5012857;28;19968;-76
2022/03/20 03:39:46;;;;;;;;;;;10.00;99.90;;;;;;5013329;28;19945;-76
2022/03/20 03:42:12;;;;;;;;;;;10.00;99.90;;;;;;5013352;28;19910;-76
2022/03/20 03:44:38;;;;;;;;;;;9.80;99.90;;;;;;5012703;28;20312;-76
2022/03/20 03:47:03;;;;;;;;;;;10.00;99.90;;;;;;5011967;28;19948;-76
2022/03/20 03:49:30;;;;;;;;;;;;;;;;;;5016029;28;19910;-76
2022/03/20 03:51:55;;;;;;;;;;;9.70;99.90;;;;;;5016970;28;20369;-76
2022/03/20 03:54:21;;;;;;;;;;;11.20;99.90;;;;;;5017504;28;19913;-76
2022/03/20 03:56:46;;;;;;;;;;;10.10;99.90;;;;;;5016839;28;19909;-76
2022/03/20 03:59:12;;;;;;;;;;;9.80;99.90;;;;;;5017314;28;20044;-76
2022/03/20 04:01:37;;;;;;;;;;;9.60;99.90;;;;;;5016795;28;20000;-76
2022/03/20 04:04:03;;;;;;;;;;;10.10;99.90;;;;;;5015094;28;19956;-76
2022/03/20 04:06:28;;;;;;;;;;;9.50;99.90;;;;;;5016925;28;20015;-76
2022/03/20 04:08:54;;;;;;;;;;;9.60;99.90;;;;;;5016603;28;19932;-76
2022/03/20 04:11:20;;;;;;;;;;;10.10;99.90;;;;;;5017153;28;19922;-76
2022/03/20 04:13:46;;;;;;;;;;;9.70;99.90;;;;;;5016562;28;20328;-76
2022/03/20 04:16:11;;;;;;;;;;;10.20;99.90;;;;;;5017126;28;19913;-76
2022/03/20 04:18:37;;;;;;;;;;;9.70;99.90;;;;;;5016173;28;19981;-76
2022/03/20 04:21:03;;;;;;;;;;;;;;;;;;5016636;28;19910;-76
2022/03/20 04:23:45;;;;;;;;;;;10.10;99.90;;;;;;5015291;28;19932;-76
2022/03/20 04:26:12;;;;;;;;;;;10.20;99.90;;;;;;5015271;28;19916;-76
2022/03/20 04:28:38;;;;;;;;;;;10.00;99.90;;;;;;5016606;28;19909;-76
2022/03/20 04:31:04;;;;;;;;;;;9.70;99.90;;;;;;5016535;28;19936;-76
2022/03/20 04:33:31;;;;;;;;;;;9.90;99.90;;;;;;5014451;28;19940;-76
2022/03/20 04:35:57;;;;;;;;;;;10.10;99.90;;;;;;5019428;28;19956;-76
2022/03/20 04:38:23;;;;;;;;;;;10.00;99.90;;;;;;5036597;28;19960;-75
2022/03/20 04:40:49;;;;;;;;;;;10.00;99.90;;;;;;5036081;28;19909;-76
2022/03/20 04:43:17;;;;;;;;;;;10.00;99.90;;;;;;5035813;28;19917;-76
2022/03/20 04:45:43;;;;;;;;;;;9.40;99.90;;;;;;5028744;28;19914;-76
2022/03/20 04:59:05;;;;;;;;;;;10.10;99.90;;;;;;5015795;28;19916;-76
2022/03/20 05:01:31;;;;;;;;;;;10.20;99.90;;;;;;5015063;28;19914;-76
2022/03/20 05:03:56;;;;;;;;;;;11.20;99.90;;;;;;5015604;28;19913;-76
2022/03/20 05:06:22;;;;;;;;;;;9.80;99.90;;;;;;5015952;28;19910;-75
2022/03/20 05:08:47;;;;;;;;;;;;;;;;;;5015857;28;19913;-76
2022/03/20 05:13:57;;;;;;;;;;;10.20;99.90;;;;;;5015424;28;19962;-76
2022/03/20 05:16:23;;;;;;;;;;;;;;;;;;5014677;28;19913;-76
2022/03/20 05:18:49;;;;;;;;;;;9.80;99.90;;;;;;5015374;28;19909;-76
2022/03/20 05:21:14;;;;;;;;;;;11.30;99.90;;;;;;5015552;28;19909;-76
2022/03/20 05:23:40;;;;;;;;;;;11.20;99.90;;;;;;5015865;28;19914;-76
2022/03/20 05:26:05;;;;;;;;;;;9.80;99.90;;;;;;5015481;28;19914;-76
2022/03/20 05:28:31;;;;;;;;;;;9.80;99.90;;;;;;5015369;28;19909;-76
2022/03/20 05:30:57;;;;;;;;;;;;;;;;;;5014752;28;20380;-76
2022/03/20 05:33:23;;;;;;;;;;;9.80;99.90;;;;;;5015188;28;19924;-75
2022/03/20 05:35:48;;;;;;;;;;;11.30;99.90;;;;;;5015196;28;19910;-76
2022/03/20 05:38:14;;;;;;;;;;;11.20;99.90;;;;;;5015329;28;19944;-76
2022/03/20 05:40:41;;;;;;;;;;;9.70;99.90;;;;;;5014856;28;20028;-76
2022/03/20 05:43:10;;;;;;;;;;;9.60;99.90;;;;;;5014711;28;19917;-76
2022/03/20 05:45:37;;;;;;;;;;;10.00;99.90;;;;;;5015390;28;19996;-76
2022/03/20 05:48:03;;;;;;;;;;;9.60;99.90;;;;;;5014609;28;19917;-76
2022/03/20 05:50:29;;;;;;;;;;;9.80;99.90;;;;;;5015097;28;19917;-76
2022/03/20 05:52:54;;;;;;;;;;;9.80;99.90;;;;;;5014857;28;19909;-76
2022/03/20 05:58:01;;;;;;;;;;;9.80;99.90;;;;;;5014729;28;19918;-76
2022/03/20 05:58:06;;;;;;;;;;;9.90;99.90;;;;;;5014659;28;19913;-76
2022/03/20 06:00:32;;;;;;;;;;;9.70;99.90;;;;;;5014938;28;19909;-76
2022/03/20 06:02:58;;;;;;;;;;;11.30;99.90;;;;;;5014406;28;19996;-76
2022/03/20 06:05:23;;;;;;;;;;;9.60;99.90;;;;;;5014846;28;19955;-76
2022/03/20 06:07:49;;;;;;;;;;;9.90;99.90;;;;;;5014596;28;19909;-76
2022/03/20 06:10:15;;;;;;;;;;;10.00;99.90;;;;;;5014156;28;19971;-76
2022/03/20 06:12:41;;;;;;;;;;;9.80;99.90;;;;;;5014201;28;19914;-76
2022/03/20 06:15:09;;;;;;;;;;;11.30;99.90;;;;;;5014649;28;20000;-76
2022/03/20 06:17:39;;;;;;;;;;;9.60;99.90;;;;;;5014395;28;19910;-76
2022/03/20 06:20:06;;;;;;;;;;;;;;;;;;5014445;28;19910;-76
2022/03/20 06:22:32;;;;;;;;;;;9.80;99.90;;;;;;5014450;28;19914;-76
2022/03/20 06:24:58;;;;;;;;;;;;;;;;;;5014707;28;19947;-76
2022/03/20 06:27:24;;;;;;;;;;;11.40;99.90;;;;;;5014316;28;19909;-76
2022/03/20 06:29:50;;;;;;;;;;;9.90;99.90;;;;;;5013830;28;20496;-76
2022/03/20 06:32:15;;;;;;;;;;;10.30;99.90;;;;;;5014427;28;19952;-76
2022/03/20 06:34:42;;;;;;;;;;;9.80;99.90;;;;;;5014173;28;20384;-76
2022/03/20 06:37:08;;;;;;;;;;;;;;;;;;5013697;28;20052;-76
2022/03/20 06:39:33;;;;;;;;;;;11.50;99.90;;;;;;5012436;28;20393;-76
2022/03/20 06:42:00;;;;;;;;;;;9.80;99.90;;;;;;5014428;28;20056;-76
2022/03/20 06:44:25;;;;;;;;;;;11.50;99.90;;;;;;5013907;28;20385;-76
2022/03/20 06:46:51;;;;;;;;;;;9.80;99.90;;;;;;5013542;28;19909;-76
2022/03/20 06:49:17;;;;;;;;;;;10.10;99.90;;;;;;5013890;28;19924;-76
2022/03/20 06:51:42;;;;;;;;;;;10.10;99.90;;;;;;5014209;28;19917;-76
2022/03/20 06:54:08;;;;;;;;;;;10.10;99.90;;;;;;5013204;28;19914;-76
2022/03/20 06:56:33;;;;;;;;;;;9.80;99.90;;;;;;5013492;28;19909;-76
2022/03/20 06:58:59;;;;;;;;;;;11.40;99.90;;;;;;5013297;28;20346;-76
2022/03/20 07:01:25;;;;;;;;;;;9.90;99.90;;;;;;5011806;28;19913;-76
2022/03/20 07:03:51;;;;;;;;;;;11.00;99.90;;;;;;5012018;28;20404;-76
2022/03/20 07:06:16;;;;;;;;;;;11.50;99.90;;;;;;5013551;28;19909;-76
2022/03/20 07:08:43;;;;;;;;;;;11.30;99.90;;;;;;5012692;28;19921;-76
2022/03/20 07:11:09;;;;;;;;;;;;;;;;;;5013398;28;20012;-76
2022/03/20 07:13:49;;;;;;;;;;;11.20;99.90;;;;;;5013578;28;19956;-76
2022/03/20 07:16:15;;;;;;;;;;;11.40;99.90;;;;;;5014144;28;19910;-76
2022/03/20 07:18:45;;;;;;;;;;;11.50;99.90;;;;;;5013275;28;20265;-76
2022/03/20 07:21:11;;;;;;;;;;;;;;;;;;5013138;28;19917;-75
2022/03/20 07:23:37;;;;;;;;;;;11.60;99.90;;;;;;5013303;28;20430;-75
2022/03/20 07:31:31;;;;;;;;;;;11.60;99.90;;;;;;5013255;28;19920;-76
2022/03/20 07:33:57;;;;;;;;;;;11.60;99.90;;;;;;5013073;28;19910;-76
2022/03/20 07:36:22;;;;;;;;;;;;;;;;;;5013339;28;19913;-76
2022/03/20 07:38:50;;;;;;;;;;;11.60;99.90;;;;;;5013504;28;19982;-76
2022/03/20 07:41:16;;;;;;;;;;;11.00;99.90;;;;;;5012916;28;19910;-76
2022/03/20 07:43:42;;;;;;;;;;;;;;;;;;5012690;28;19917;-76
2022/03/20 07:46:08;;;;;;;;;;;11.80;99.90;;;;;;5013482;28;19917;-76
2022/03/20 07:48:34;;;;;;;;;;;11.30;99.90;;;;;;5013215;28;19916;-76
2022/03/20 07:51:00;;;;;;;;;;;11.60;99.90;;;;;;5012730;28;19976;-76
2022/03/20 07:53:26;;;;;;;;;;;11.00;99.90;;;;;;5012741;28;19914;-76
2022/03/20 07:55:52;;;;;;;;;;;11.50;99.90;;;;;;5012999;28;19909;-76
2022/03/20 07:58:18;;;;;;;;;;;;;;;;;;5013147;28;20269;-76
2022/03/20 08:00:44;;;;;;;;;;;;;;;;;;5012863;28;19952;-76
2022/03/20 08:03:10;;;;;;;;;;;;;;;;;;5010963;28;19933;-76
2022/03/20 08:05:36;;;;;;;;;;;11.70;99.90;;;;;;5019492;28;20365;-76
2022/03/20 08:08:02;;;;;;;;;;;11.60;99.90;;;;;;5013474;28;19913;-76
2022/03/20 08:10:28;;;;;;;;;;;;;;;;;;5020863;28;19918;-75
2022/03/20 08:12:54;;;;;;;;;;;;;;;;;;5021704;28;19960;-76
2022/03/20 08:15:20;;;;;;;;;;;;;;;;;;5018561;28;20366;-76
2022/03/20 08:17:47;;;;;;;;;;;11.10;99.90;;;;;;5017227;28;19910;-76
2022/03/20 08:20:13;;;;;;;;;;;11.60;99.90;;;;;;5012549;28;19987;-76
2022/03/20 08:22:39;;;;;;;;;;;;;;;;;;5013121;28;19909;-77
2022/03/20 08:25:05;;;;;;;;;;;;;;;;;;5012747;28;20481;-76
2022/03/20 08:27:31;;;;;;;;;;;;;;;;;;5014556;28;19992;-80
2022/03/20 08:29:57;;;;;;;;;;;11.60;99.90;;;;;;5016214;28;20016;-76
2022/03/20 08:32:23;;;;;;;;;;;;;;;;;;5013947;28;19914;-75
2022/03/20 08:34:50;;;;;;;;;;;11.20;99.90;;;;;;5015648;28;20345;-76
2022/03/20 08:37:15;;;;;;;;;;;11.30;99.90;;;;;;5018753;28;19996;-77
2022/03/20 08:39:41;;;;;;;;;;;;;;;;;;5021256;28;20344;-76
2022/03/20 08:42:07;;;;;;;;;;;13.20;99.90;;;;;;5016953;28;19914;-75
2022/03/20 08:44:33;;;;;;;;;;;11.20;99.90;;;;;;5015484;28;20384;-77
2022/03/20 08:46:58;;;;;;;;;;;11.50;99.90;;;;;;5016520;28;19910;-77
2022/03/20 08:49:24;;;;;;;;;;;;;;;;;;5016134;28;19921;-76
2022/03/20 08:51:50;;;;;;;;;;;;;;;;;;5017031;28;19926;-76
2022/03/20 08:54:16;;;;;;;;;;;11.60;99.90;;;;;;5024092;28;19920;-75
2022/03/20 08:56:41;;;;;;;;;;;11.80;99.90;;;;;;5015566;28;19932;-75
2022/03/20 08:59:07;;;;;;;;;;;12.10;99.90;;;;;;5016147;28;19909;-75
2022/03/20 09:01:33;;;;;;;;;;;11.90;99.90;;;;;;5017409;28;19967;-79
2022/03/20 09:03:58;;;;;;;;;;;13.60;99.90;;;;;;5015853;28;19964;-76
2022/03/20 09:06:24;;;;;;;;;;;;;;;;;;5015452;28;20004;-75
2022/03/20 09:08:50;;;;;;;;;;;12.40;99.90;;;;;;5024274;28;19943;-75
2022/03/20 09:11:16;;;;;;;;;;;11.80;99.90;;;;;;5020546;28;19917;-74
2022/03/20 09:13:41;;;;;;;;;;;11.80;99.90;;;;;;5015975;28;19916;-74
2022/03/20 09:19:00;;;;;;;;;;;12.20;99.90;;;;;;5035065;28;20395;-73
2022/03/20 09:21:27;;;;;;;;;;;12.40;99.90;;;;;;5034929;28;20357;-76
2022/03/20 09:23:52;;;;;;;;;;;12.30;99.90;;;;;;5025512;28;19913;-77
2022/03/20 09:26:18;;;;;;;;;;;13.90;99.90;;;;;;5035226;28;19910;-75
2022/03/20 09:28:44;;;;;;;;;;;13.90;99.90;;;;;;5035397;28;19992;-75
2022/03/20 09:31:10;;;;;;;;;;;;;;;;;;5034411;28;19914;-77
2022/03/20 09:33:36;;;;;;;;;;;12.50;99.90;;;;;;4996047;28;19952;-75
2022/03/20 09:36:01;;;;;;;;;;;13.90;99.90;;;;;;5013419;28;20369;-76
2022/03/20 09:38:27;;;;;;;;;;;13.90;99.90;;;;;;5015141;28;19910;-76
2022/03/20 09:40:54;;;;;;;;;;;12.30;99.90;;;;;;5014675;28;20377;-76
2022/03/20 09:43:20;;;;;;;;;;;13.50;99.90;;;;;;5014637;28;19927;-76
2022/03/20 09:45:47;;;;;;;;;;;13.90;99.90;;;;;;5014647;28;20008;-75
2022/03/20 09:48:14;;;;;;;;;;;13.30;99.90;;;;;;5015343;28;19910;-76
2022/03/20 09:50:40;;;;;;;;;;;13.60;99.90;;;;;;5014473;28;20020;-76
2022/03/20 09:53:05;;;;;;;;;;;;;;;;;;5014833;28;19917;-75
2022/03/20 09:55:32;;;;;;;;;;;;;;;;;;5015047;28;20378;-76
2022/03/20 09:57:58;;;;;;;;;;;13.40;99.90;;;;;;5015324;28;20284;-76
2022/03/20 10:00:24;;;;;;;;;;;15.30;99.90;;;;;;5013501;28;19917;-76
2022/03/20 10:02:50;;;;;;;;;;;13.60;99.90;;;;;;5014754;28;19913;-76
2022/03/20 10:05:22;;;;;;;;;;;13.70;99.90;;;;;;5015166;28;19909;-76
2022/03/20 10:07:48;;;;;;;;;;;;;;;;;;5014020;28;19921;-76
2022/03/20 10:10:17;;;;;;;;;;;13.90;99.90;;;;;;5013023;28;19917;-76
2022/03/20 10:12:44;;;;;;;;;;;;;;;;;;5014485;28;20404;-76
2022/03/20 10:15:31;;;;;;;;;;;15.60;99.90;;;;;;5014114;28;19917;-76
2022/03/20 10:18:14;;;;;;;;;;;15.20;99.90;;;;;;5014551;28;19917;-76
2022/03/20 10:20:41;;;;;;;;;;;15.50;99.90;;;;;;5014209;28;19914;-76
2022/03/20 10:23:26;;;;;;;;;;;15.60;99.90;;;;;;5014121;28;19931;-76
2022/03/20 10:25:52;;;;;;;;;;;15.10;99.90;;;;;;5014145;28;19910;-76
2022/03/20 10:28:17;;;;;;;;;;;14.20;99.90;;;;;;5014451;28;20004;-77
2022/03/20 10:30:54;;;;;;;;;;;15.30;99.90;;;;;;5017029;28;19932;-76
2022/03/20 10:33:20;;;;;;;;;;;15.30;99.90;;;;;;5013960;28;20131;-76
2022/03/20 10:36:05;;;;;;;;;;;13.70;99.90;;;;;;5013514;28;19914;-75
2022/03/20 10:38:37;;;;;;;;;;;15.20;99.90;;;;;;5013172;28;20304;-75
2022/03/20 10:41:03;;;;;;;;;;;;;;;;;;5014230;28;20373;-76
2022/03/20 10:43:28;;;;;;;;;;;13.20;99.90;;;;;;5013784;28;19960;-76
2022/03/20 10:46:00;;;;;;;;;;;15.20;99.90;;;;;;5013930;28;20043;-76
2022/03/20 10:48:39;;;;;;;;;;;15.40;99.90;;;;;;5013545;28;20420;-76
2022/03/20 10:51:05;;;;;;;;;;;15.50;99.90;;;;;;4998920;28;19963;-76
2022/03/20 10:53:31;;;;;;;;;;;15.00;99.90;;;;;;5022669;28;20293;-76
2022/03/20 10:56:03;;;;;;;;;;;15.30;99.90;;;;;;5020034;28;19909;-76
2022/03/20 10:58:29;;;;;;;;;;;;;;;;;;5016072;28;19913;-76
2022/03/20 11:00:56;;;;;;;;;;;15.50;99.90;;;;;;5013343;28;20377;-76
2022/03/20 11:03:23;;;;;;;;;;;15.40;99.90;;;;;;5030300;28;19955;-76
2022/03/20 11:05:49;;;;;;;;;;;;;;;;;;5032938;28;19909;-76
2022/03/20 11:08:15;;;;;;;;;;;15.30;99.90;;;;;;5015771;28;19940;-77
2022/03/20 11:10:44;;;;;;;;;;;15.60;99.90;;;;;;5032557;28;19917;-81
2022/03/20 11:13:10;;;;;;;;;;;;;;;;;;5033314;28;19955;-77
2022/03/20 11:15:37;;;;;;;;;;;15.20;99.90;;;;;;5019283;28;19914;-77
2022/03/20 11:18:04;;;;;;;;;;;14.10;99.90;;;;;;5029313;28;19909;-77
2022/03/20 11:20:31;;;;;;;;;;;15.70;99.90;;;;;;5032890;28;19909;-76
2022/03/20 11:22:59;;;;;;;;;;;15.30;99.90;;;;;;5016478;28;19967;-76
2022/03/20 11:25:25;;;;;;;;;;;15.70;99.90;;;;;;5013520;28;19909;-76
2022/03/20 11:27:53;;;;;;;;;;;15.70;99.90;;;;;;5013214;28;20365;-77
2022/03/20 11:30:20;;;;;;;;;;;14.60;99.90;;;;;;5016299;28;19963;-76
2022/03/20 11:32:47;;;;;;;;;;;;;;;;;;5020126;28;19996;-77
2022/03/20 11:35:13;;;;;;;;;;;;;;;;;;5012598;28;19936;-76
2022/03/20 11:37:42;;;;;;;;;;;14.50;99.90;;;;;;5014813;28;19995;-77
2022/03/20 11:40:09;;;;;;;;;;;15.60;99.90;;;;;;5028651;28;19913;-76
2022/03/20 11:42:34;;;;;;;;;;;15.90;99.90;;;;;;5030675;28;19909;-81
2022/03/20 11:45:00;;;;;;;;;;;15.70;99.90;;;;;;5013165;28;19929;-78
2022/03/20 11:47:29;;;;;;;;;;;15.70;99.90;;;;;;5020295;28;19909;-76
2022/03/20 11:50:07;;;;;;;;;;;15.70;99.90;;;;;;5012054;28;19913;-78
2022/03/20 11:52:33;;;;;;;;;;;;;;;;;;5014814;28;19909;-77
2022/03/20 11:54:59;;;;;;;;;;;;;;;;;;5016625;28;20377;-77
2022/03/20 11:57:31;;;;;;;;;;;15.70;99.90;;;;;;5010338;28;19920;-76
2022/03/20 12:00:08;;;;;;;;;;;14.10;99.90;;;;;;5008449;28;19910;-80
2022/03/20 12:02:34;;;;;;;;;;;;;;;;;;5012912;28;19956;-76
2022/03/20 12:05:00;;;;;;;;;;;;;;;;;;5012407;28;19941;-76
2022/03/20 12:07:32;;;;;;;;;;;15.80;99.90;;;;;;5013791;28;19968;-77
2022/03/20 12:09:58;;;;;;;;;;;;;;;;;;5014298;28;19910;-76
2022/03/20 12:12:34;;;;;;;;;;;15.30;99.90;;;;;;5021434;28;20026;-76
2022/03/20 12:15:03;;;;;;;;;;;;;;;;;;5016018;28;20250;-77
2022/03/20 12:17:29;;;;;;;;;;;;;;;;;;5011562;28;19913;-78
2022/03/20 12:19:55;;;;;;;;;;;;;;;;;;5018209;28;19913;-77
2022/03/20 12:22:21;;;;;;;;;;;15.40;99.90;;;;;;5016823;28;19918;-76
2022/03/20 12:24:51;;;;;;;;;;;15.10;99.90;;;;;;5015646;28;19920;-77
2022/03/20 12:27:23;;;;;;;;;;;15.40;99.90;;;;;;5015148;28;20782;-77
2022/03/20 12:29:49;;;;;;;;;;;14.90;99.90;;;;;;5020281;28;19955;-76
2022/03/20 12:32:15;;;;;;;;;;;;;;;;;;5019054;28;19910;-76
2022/03/20 12:34:41;;;;;;;;;;;15.00;99.90;;;;;;5023552;28;19944;-76
2022/03/20 12:37:07;;;;;;;;;;;;;;;;;;5014810;28;20278;-76
2022/03/20 12:39:33;;;;;;;;;;;;;;;;;;5016814;28;19913;-76
2022/03/20 12:41:59;;;;;;;;;;;13.80;99.90;;;;;;5016619;28;19909;-78
2022/03/20 12:44:24;;;;;;;;;;;13.80;99.90;;;;;;5014177;28;19918;-76
2022/03/20 15:28:49;;;;;;;2.88;1.35;;;13.70;99.90;;;;;;5130750;27;20602;-76
2022/03/20 15:31:44;;;;;;;2.95;1.38;;;13.60;99.90;;;;;;5131233;27;20106;-76
2022/03/20 15:34:12;;;;;;;3.67;1.15;;;13.50;99.90;;;;;;5131077;27;20027;-76
2022/03/20 15:39:20;;;;;;;2.60;1.25;;;13.40;99.90;;;;;;5139948;27;20100;-75
2022/03/20 15:52:59;;;;;;;6.63;2.00;;;13.30;99.90;;;;;;5131001;27;20108;-75
2022/03/20 15:55:25;;;;;;;7.28;2.50;;;13.30;99.90;;;;;;5112265;28;20038;-75
2022/03/20 15:57:52;;;;;;;7.93;2.47;;;13.40;99.90;;;;;;5130265;28;20102;-74
2022/03/20 16:00:18;;;;;;;7.05;2.30;;;13.30;99.90;;;;;;5130850;28;20024;-76
2022/03/20 16:02:45;;;;;;;13.18;3.92;;;13.20;99.90;;;;;;5130591;28;20022;-74
2022/03/20 16:05:10;;;;;;;8.20;2.88;;;13.40;99.90;;;;;;5131076;28;20031;-77
2022/03/20 16:07:36;;;;;;;11.88;2.83;;;13.40;99.90;;;;;;5130815;28;20065;-75
2022/03/20 16:10:02;;;;;;;14.45;3.83;;;13.30;99.90;;;;;;5130561;28;20110;-75
2022/03/20 16:12:28;;;;;;;8.25;3.47;;;13.30;99.90;;;;;;5130146;27;20028;-77
2022/03/20 16:14:55;;;;;;;5.50;2.70;;;13.20;99.90;;;;;;5130590;28;20027;-76
2022/03/20 16:17:21;;;;;;;14.82;4.05;;;13.00;99.90;;;;;;5130731;28;20043;-76
2022/03/20 16:19:46;;;;;;;13.15;3.63;;;13.00;99.90;;;;;;5130735;28;20030;-77
2022/03/20 16:22:13;;;;;;;9.75;3.00;;;12.90;99.90;;;;;;5130404;28;20027;-76
2022/03/20 16:30:09;;;;;;;10.98;3.28;;;13.00;99.90;;;;;;5134491;27;20401;-77
2022/03/20 16:32:36;;;;;;;7.75;2.67;;;13.00;99.90;;;;;;5129520;28;20106;-76
2022/03/20 16:35:01;;;;;;;8.25;2.97;;;13.10;99.90;;;;;;5129881;28;20043;-77
2022/03/20 16:37:27;;;;;;;7.78;3.10;;;13.00;99.90;;;;;;5129931;28;20023;-77
2022/03/20 16:39:53;;;;;;;9.95;3.03;;;13.10;99.90;;;;;;5129664;28;20402;-77
2022/03/20 16:42:19;;;;;;;10.77;4.45;;;12.90;99.90;;;;;;5129331;27;20367;-77
2022/03/20 16:44:47;;;;;;;7.60;3.08;;;12.90;99.90;;;;;;5115454;28;20024;-76
2022/03/20 16:47:12;;;;;;;7.45;3.30;;;12.90;99.90;;;;;;5108948;28;20034;-77
2022/03/20 16:49:38;;;;;;;9.18;2.85;;;12.90;99.90;;;;;;5111817;28;20106;-76
2022/03/20 16:52:04;;;;;;;7.32;2.55;;;12.70;99.90;;;;;;5118015;28;20078;-76
2022/03/20 16:54:30;;;;;;;8.05;2.83;;;12.70;99.90;;;;;;5118534;28;20041;-76
2022/03/20 16:56:55;;;;;;;7.60;2.45;;;12.70;99.90;;;;;;5130021;28;20022;-76
2022/03/20 16:59:21;;;;;;;24.45;9.98;;;12.60;99.90;;;;;;5130142;28;20023;-76
2022/03/20 17:01:47;;;;;;;7.93;2.40;;;12.60;99.90;;;;;;5110728;28;20530;-77
2022/03/20 17:04:16;;;;;;;11.07;3.10;;;12.60;99.90;;;;;;5075991;28;20427;-77
2022/03/20 17:06:43;;;;;;;10.63;2.45;;;12.50;99.90;;;;;;5075195;28;20024;-77
2022/03/20 17:09:09;;;;;;;12.50;2.85;;;12.50;99.90;;;;;;5056872;28;20380;-76
2022/03/20 17:11:35;;;;;;;10.65;2.70;;;12.40;99.90;;;;;;5075303;28;20028;-76
2022/03/20 17:14:01;;;;;;;10.38;2.90;;;12.40;99.90;;;;;;5074748;28;20028;-77
2022/03/20 17:16:27;;;;;;;10.63;2.90;;;12.40;99.90;;;;;;5075227;28;20372;-76
2022/03/20 17:18:53;;;;;;;4.53;1.75;;;12.30;99.90;;;;;;5075143;28;20021;-77
2022/03/20 17:21:18;;;;;;;8.77;3.05;;;12.30;99.90;;;;;;5074886;28;20056;-77
2022/03/20 17:23:45;;;;;;;11.68;3.58;;;12.30;99.90;;;;;;5074756;28;20031;-77
2022/03/20 17:26:10;;;;;;;6.25;2.30;;;12.30;99.90;;;;;;5057113;28;20033;-77
2022/03/20 17:28:37;;;;;;;6.68;2.85;;;12.20;99.90;;;;;;5080431;28;20035;-77
2022/03/20 17:31:03;;;;;;;8.32;2.63;;;12.20;99.90;;;;;;5095128;28;20438;-77
2022/03/20 17:33:31;;;;;;;11.63;3.17;;;12.20;99.90;;;;;;5086675;28;20114;-77
2022/03/20 17:35:59;;;;;;;12.57;2.53;;;12.20;99.90;;;;;;5090312;28;20475;-77
2022/03/20 17:38:25;;;;;;;8.95;2.67;;;12.10;99.90;;;;;;5093612;28;20487;-77
2022/03/20 17:40:51;;;;;;;10.55;2.55;;;12.10;99.90;;;;;;5093745;28;20031;-78
2022/03/20 17:43:17;;;;;;;10.40;2.88;;;12.10;99.90;;;;;;5090867;28;20021;-76
2022/03/20 17:45:43;;;;;;;10.18;2.03;;;12.00;99.90;;;;;;5058214;28;20388;-77
2022/03/20 17:48:09;;;;;;;9.23;2.50;;;12.00;99.90;;;;;;5056524;28;20107;-76
2022/03/20 17:50:36;;;;;;;8.75;2.20;;;12.00;99.90;;;;;;5074065;28;20024;-77
2022/03/20 17:53:02;;;;;;;8.68;2.75;;;12.00;99.90;;;;;;5085321;28;20028;-77